sensor_id;sensor_type;location;lat;lon;timestamp;temperature;humidity
262;DHT22;114;48.260;10.988;2023-08-06T00:02:14;14.10;97.90
262;DHT22;114;48.260;10.988;2023-08-06T00:04:39;14.10;98.30
262;DHT22;114;48.260;10.988;2023-08-06T00:07:05;14.10;99.00
262;DHT22;114;48.260;10.988;2023-08-06T00:09:32;14.10;99.40
262;DHT22;114;48.260;10.988;2023-08-06T00:11:57;14.00;99.90
262;DHT22;114;48.260;10.988;2023-08-06T00:14:24;14.00;99.90
262;DHT22;114;48.260;10.988;2023-08-06T00:16:50;14.00;99.90
262;DHT22;114;48.260;10.988;2023-08-06T00:19:15;14.10;99.90
262;DHT22;114;48.260;10.988;2023-08-06T00:21:41;14.00;99.30
262;DHT22;114;48.260;10.988;2023-08-06T00:24:07;14.00;99.30
262;DHT22;114;48.260;10.988;2023-08-06T00:26:32;13.90;99.60
262;DHT22;114;48.260;10.988;2023-08-06T00:28:58;13.90;99.90
262;DHT22;114;48.260;10.988;2023-08-06T00:31:25;13.80;99.90
262;DHT22;114;48.260;10.988;2023-08-06T00:33:50;13.90;99.90
262;DHT22;114;48.260;10.988;2023-08-06T00:36:16;13.80;99.90
262;DHT22;114;48.260;10.988;2023-08-06T00:38:42;13.80;99.90
262;DHT22;114;48.260;10.988;2023-08-06T00:41:07;13.80;99.90
262;DHT22;114;48.260;10.988;2023-08-06T00:43:33;13.80;99.90
262;DHT22;114;48.260;10.988;2023-08-06T00:45:59;13.80;99.90
262;DHT22;114;48.260;10.988;2023-08-06T00:48:25;13.80;99.90
262;DHT22;114;48.260;10.988;2023-08-06T00:50:51;13.80;99.90
262;DHT22;114;48.260;10.988;2023-08-06T00:53:17;13.80;99.90
262;DHT22;114;48.260;10.988;2023-08-06T00:55:44;13.80;99.90
262;DHT22;114;48.260;10.988;2023-08-06T00:58:12;13.80;99.90
262;DHT22;114;48.260;10.988;2023-08-06T01:00:38;13.80;99.90
262;DHT22;114;48.260;10.988;2023-08-06T01:03:04;13.80;99.90
262;DHT22;114;48.260;10.988;2023-08-06T01:05:30;13.80;99.90
262;DHT22;114;48.260;10.988;2023-08-06T01:10:39;13.80;99.90
262;DHT22;114;48.260;10.988;2023-08-06T01:16:06;13.80;99.50
262;DHT22;114;48.260;10.988;2023-08-06T01:18:32;13.80;99.20
262;DHT22;114;48.260;10.988;2023-08-06T01:20:58;13.80;99.80
262;DHT22;114;48.260;10.988;2023-08-06T01:23:24;13.80;99.90
262;DHT22;114;48.260;10.988;2023-08-06T01:26:10;13.70;99.90
262;DHT22;114;48.260;10.988;2023-08-06T01:31:03;13.70;99.90
262;DHT22;114;48.260;10.988;2023-08-06T01:33:32;13.70;99.50
262;DHT22;114;48.260;10.988;2023-08-06T01:36:00;13.70;99.60
262;DHT22;114;48.260;10.988;2023-08-06T01:38:26;13.70;99.10
262;DHT22;114;48.260;10.988;2023-08-06T01:40:53;13.70;99.10
262;DHT22;114;48.260;10.988;2023-08-06T01:43:19;13.70;99.20
262;DHT22;114;48.260;10.988;2023-08-06T01:45:45;13.70;99.90
262;DHT22;114;48.260;10.988;2023-08-06T01:48:10;13.70;99.70
262;DHT22;114;48.260;10.988;2023-08-06T01:50:36;13.70;98.90
262;DHT22;114;48.260;10.988;2023-08-06T01:53:02;13.60;98.50
262;DHT22;114;48.260;10.988;2023-08-06T01:55:29;13.60;99.30
262;DHT22;114;48.260;10.988;2023-08-06T01:57:55;13.60;98.00
262;DHT22;114;48.260;10.988;2023-08-06T02:00:21;13.60;98.30
262;DHT22;114;48.260;10.988;2023-08-06T02:02:47;13.50;98.80
262;DHT22;114;48.260;10.988;2023-08-06T02:05:12;13.50;99.40
262;DHT22;114;48.260;10.988;2023-08-06T02:07:38;13.50;99.90
262;DHT22;114;48.260;10.988;2023-08-06T02:10:04;13.40;99.20
262;DHT22;114;48.260;10.988;2023-08-06T02:12:30;13.40;99.40
262;DHT22;114;48.260;10.988;2023-08-06T02:14:56;13.40;99.50
262;DHT22;114;48.260;10.988;2023-08-06T02:17:21;13.40;99.00
262;DHT22;114;48.260;10.988;2023-08-06T02:19:47;13.40;98.70
262;DHT22;114;48.260;10.988;2023-08-06T02:22:13;13.30;98.80
262;DHT22;114;48.260;10.988;2023-08-06T02:24:38;13.40;99.10
262;DHT22;114;48.260;10.988;2023-08-06T02:27:04;13.40;99.20
262;DHT22;114;48.260;10.988;2023-08-06T02:29:30;13.40;98.80
262;DHT22;114;48.260;10.988;2023-08-06T02:31:55;13.30;99.90
262;DHT22;114;48.260;10.988;2023-08-06T02:34:21;13.40;99.90
262;DHT22;114;48.260;10.988;2023-08-06T02:36:48;13.40;99.90
262;DHT22;114;48.260;10.988;2023-08-06T02:39:14;13.40;99.90
262;DHT22;114;48.260;10.988;2023-08-06T02:41:39;13.40;99.90
262;DHT22;114;48.260;10.988;2023-08-06T02:44:05;13.30;99.90
262;DHT22;114;48.260;10.988;2023-08-06T02:46:31;13.30;99.90
262;DHT22;114;48.260;10.988;2023-08-06T02:48:57;13.30;99.90
262;DHT22;114;48.260;10.988;2023-08-06T02:51:22;13.20;99.90
262;DHT22;114;48.260;10.988;2023-08-06T02:53:48;13.20;99.90
262;DHT22;114;48.260;10.988;2023-08-06T02:56:15;13.20;99.90
262;DHT22;114;48.260;10.988;2023-08-06T02:58:41;13.30;99.90
262;DHT22;114;48.260;10.988;2023-08-06T03:01:06;13.20;99.90
262;DHT22;114;48.260;10.988;2023-08-06T03:03:33;13.20;99.90
262;DHT22;114;48.260;10.988;2023-08-06T03:05:59;13.20;99.90
262;DHT22;114;48.260;10.988;2023-08-06T03:08:25;13.20;99.90
262;DHT22;114;48.260;10.988;2023-08-06T03:10:51;13.20;99.90
262;DHT22;114;48.260;10.988;2023-08-06T03:13:18;13.20;99.90
262;DHT22;114;48.260;10.988;2023-08-06T03:18:19;13.10;99.90
262;DHT22;114;48.260;10.988;2023-08-06T03:20:45;13.10;99.90
262;DHT22;114;48.260;10.988;2023-08-06T03:23:11;13.00;99.90
262;DHT22;114;48.260;10.988;2023-08-06T03:25:36;13.00;99.90
262;DHT22;114;48.260;10.988;2023-08-06T03:28:02;13.00;99.90
262;DHT22;114;48.260;10.988;2023-08-06T03:30:28;13.00;99.90
262;DHT22;114;48.260;10.988;2023-08-06T03:32:54;13.00;99.90
262;DHT22;114;48.260;10.988;2023-08-06T03:35:19;13.00;99.90
262;DHT22;114;48.260;10.988;2023-08-06T03:37:46;13.00;99.90
262;DHT22;114;48.260;10.988;2023-08-06T03:40:11;13.00;99.90
262;DHT22;114;48.260;10.988;2023-08-06T03:42:37;13.00;99.90
262;DHT22;114;48.260;10.988;2023-08-06T03:45:03;13.00;99.90
262;DHT22;114;48.260;10.988;2023-08-06T03:47:29;12.90;99.90
262;DHT22;114;48.260;10.988;2023-08-06T03:49:54;12.90;99.90
262;DHT22;114;48.260;10.988;2023-08-06T03:52:20;12.90;99.90
262;DHT22;114;48.260;10.988;2023-08-06T03:54:46;12.90;99.90
262;DHT22;114;48.260;10.988;2023-08-06T03:57:11;12.90;99.90
262;DHT22;114;48.260;10.988;2023-08-06T03:59:37;12.90;99.90
262;DHT22;114;48.260;10.988;2023-08-06T04:02:03;12.90;99.90
262;DHT22;114;48.260;10.988;2023-08-06T04:04:29;12.90;99.90
262;DHT22;114;48.260;10.988;2023-08-06T04:06:54;12.90;99.90
262;DHT22;114;48.260;10.988;2023-08-06T04:09:20;13.00;99.90
262;DHT22;114;48.260;10.988;2023-08-06T04:11:46;13.00;99.90
262;DHT22;114;48.260;10.988;2023-08-06T04:14:12;13.00;99.90
262;DHT22;114;48.260;10.988;2023-08-06T04:16:37;13.10;99.90
262;DHT22;114;48.260;10.988;2023-08-06T04:19:03;13.00;98.20
262;DHT22;114;48.260;10.988;2023-08-06T04:21:28;13.00;98.40
262;DHT22;114;48.260;10.988;2023-08-06T04:23:55;13.00;98.00
262;DHT22;114;48.260;10.988;2023-08-06T04:26:21;13.10;98.00
262;DHT22;114;48.260;10.988;2023-08-06T04:28:46;13.10;98.10
262;DHT22;114;48.260;10.988;2023-08-06T04:31:12;13.10;97.40
262;DHT22;114;48.260;10.988;2023-08-06T04:33:38;13.20;98.10
262;DHT22;114;48.260;10.988;2023-08-06T04:36:04;13.10;96.60
262;DHT22;114;48.260;10.988;2023-08-06T04:38:30;13.20;97.20
262;DHT22;114;48.260;10.988;2023-08-06T04:40:55;13.10;97.10
262;DHT22;114;48.260;10.988;2023-08-06T04:43:21;13.10;97.40
262;DHT22;114;48.260;10.988;2023-08-06T04:45:48;13.10;96.70
262;DHT22;114;48.260;10.988;2023-08-06T04:48:14;13.10;97.20
262;DHT22;114;48.260;10.988;2023-08-06T04:50:44;13.00;97.50
262;DHT22;114;48.260;10.988;2023-08-06T04:53:10;13.00;96.60
262;DHT22;114;48.260;10.988;2023-08-06T04:55:36;13.00;97.80
262;DHT22;114;48.260;10.988;2023-08-06T04:58:02;13.00;98.20
262;DHT22;114;48.260;10.988;2023-08-06T05:00:28;13.00;97.10
262;DHT22;114;48.260;10.988;2023-08-06T05:02:53;13.00;96.10
262;DHT22;114;48.260;10.988;2023-08-06T05:05:19;13.10;95.50
262;DHT22;114;48.260;10.988;2023-08-06T05:07:49;13.10;96.20
262;DHT22;114;48.260;10.988;2023-08-06T05:10:16;13.00;95.00
262;DHT22;114;48.260;10.988;2023-08-06T05:12:41;13.00;95.60
262;DHT22;114;48.260;10.988;2023-08-06T05:15:08;13.00;95.20
262;DHT22;114;48.260;10.988;2023-08-06T05:17:34;13.00;95.70
262;DHT22;114;48.260;10.988;2023-08-06T05:19:59;13.10;94.30
262;DHT22;114;48.260;10.988;2023-08-06T05:22:26;13.30;93.70
262;DHT22;114;48.260;10.988;2023-08-06T05:24:52;13.50;92.20
262;DHT22;114;48.260;10.988;2023-08-06T05:27:18;13.60;87.50
262;DHT22;114;48.260;10.988;2023-08-06T05:29:48;13.70;84.00
262;DHT22;114;48.260;10.988;2023-08-06T05:32:13;13.80;86.00
262;DHT22;114;48.260;10.988;2023-08-06T05:34:39;14.10;81.70
262;DHT22;114;48.260;10.988;2023-08-06T05:37:06;14.20;78.10
262;DHT22;114;48.260;10.988;2023-08-06T05:39:32;14.10;76.60
262;DHT22;114;48.260;10.988;2023-08-06T05:41:58;14.00;80.60
262;DHT22;114;48.260;10.988;2023-08-06T05:44:24;14.00;82.10
262;DHT22;114;48.260;10.988;2023-08-06T05:46:50;13.80;84.30
262;DHT22;114;48.260;10.988;2023-08-06T05:49:16;13.80;85.20
262;DHT22;114;48.260;10.988;2023-08-06T05:51:41;13.90;78.40
262;DHT22;114;48.260;10.988;2023-08-06T05:54:08;13.90;72.90
262;DHT22;114;48.260;10.988;2023-08-06T05:56:34;14.00;70.80
262;DHT22;114;48.260;10.988;2023-08-06T05:59:00;14.00;68.70
262;DHT22;114;48.260;10.988;2023-08-06T06:01:25;14.10;69.10
262;DHT22;114;48.260;10.988;2023-08-06T06:03:51;14.40;62.50
262;DHT22;114;48.260;10.988;2023-08-06T06:06:17;14.70;58.00
262;DHT22;114;48.260;10.988;2023-08-06T06:08:44;14.80;49.50
262;DHT22;114;48.260;10.988;2023-08-06T06:11:10;15.00;45.10
262;DHT22;114;48.260;10.988;2023-08-06T06:13:36;15.20;45.00
262;DHT22;114;48.260;10.988;2023-08-06T06:16:01;15.30;41.30
262;DHT22;114;48.260;10.988;2023-08-06T06:18:27;15.20;37.60
262;DHT22;114;48.260;10.988;2023-08-06T06:20:53;15.10;34.80
262;DHT22;114;48.260;10.988;2023-08-06T06:23:19;15.10;35.30
262;DHT22;114;48.260;10.988;2023-08-06T06:25:49;15.30;32.80
262;DHT22;114;48.260;10.988;2023-08-06T06:28:19;15.40;32.90
262;DHT22;114;48.260;10.988;2023-08-06T06:30:45;15.50;34.40
262;DHT22;114;48.260;10.988;2023-08-06T06:33:10;15.80;35.20
262;DHT22;114;48.260;10.988;2023-08-06T06:35:36;15.80;36.40
262;DHT22;114;48.260;10.988;2023-08-06T06:38:02;15.60;37.60
262;DHT22;114;48.260;10.988;2023-08-06T06:40:28;15.10;48.20
262;DHT22;114;48.260;10.988;2023-08-06T06:42:54;15.00;51.30
262;DHT22;114;48.260;10.988;2023-08-06T06:45:19;14.60;59.60
262;DHT22;114;48.260;10.988;2023-08-06T06:47:45;14.40;68.00
262;DHT22;114;48.260;10.988;2023-08-06T06:50:11;14.30;73.50
262;DHT22;114;48.260;10.988;2023-08-06T06:52:37;14.20;77.20
262;DHT22;114;48.260;10.988;2023-08-06T06:55:03;14.30;81.70
262;DHT22;114;48.260;10.988;2023-08-06T06:57:29;14.40;80.70
262;DHT22;114;48.260;10.988;2023-08-06T06:59:54;14.50;75.90
262;DHT22;114;48.260;10.988;2023-08-06T07:02:20;14.40;70.30
262;DHT22;114;48.260;10.988;2023-08-06T07:04:46;14.60;71.50
262;DHT22;114;48.260;10.988;2023-08-06T07:07:12;14.80;63.10
262;DHT22;114;48.260;10.988;2023-08-06T07:09:37;14.80;66.20
262;DHT22;114;48.260;10.988;2023-08-06T07:12:03;15.00;66.90
262;DHT22;114;48.260;10.988;2023-08-06T07:14:29;15.10;61.60
262;DHT22;114;48.260;10.988;2023-08-06T07:16:55;15.30;55.40
262;DHT22;114;48.260;10.988;2023-08-06T07:19:21;15.40;55.20
262;DHT22;114;48.260;10.988;2023-08-06T07:21:47;15.30;54.00
262;DHT22;114;48.260;10.988;2023-08-06T07:24:12;15.30;54.20
262;DHT22;114;48.260;10.988;2023-08-06T07:26:38;15.20;55.10
262;DHT22;114;48.260;10.988;2023-08-06T07:29:04;15.10;47.10
262;DHT22;114;48.260;10.988;2023-08-06T07:31:30;15.20;48.10
262;DHT22;114;48.260;10.988;2023-08-06T07:33:56;15.40;49.60
262;DHT22;114;48.260;10.988;2023-08-06T07:36:21;15.50;44.50
262;DHT22;114;48.260;10.988;2023-08-06T07:38:47;15.60;41.40
262;DHT22;114;48.260;10.988;2023-08-06T07:41:16;15.50;45.30
262;DHT22;114;48.260;10.988;2023-08-06T07:43:42;15.70;40.00
262;DHT22;114;48.260;10.988;2023-08-06T07:46:08;15.60;34.40
262;DHT22;114;48.260;10.988;2023-08-06T07:48:34;15.70;40.40
262;DHT22;114;48.260;10.988;2023-08-06T07:51:00;16.00;28.60
262;DHT22;114;48.260;10.988;2023-08-06T07:53:25;16.20;25.50
262;DHT22;114;48.260;10.988;2023-08-06T07:55:55;16.30;27.20
262;DHT22;114;48.260;10.988;2023-08-06T07:58:21;16.20;25.00
262;DHT22;114;48.260;10.988;2023-08-06T08:00:47;16.00;19.30
262;DHT22;114;48.260;10.988;2023-08-06T08:03:14;15.90;22.50
262;DHT22;114;48.260;10.988;2023-08-06T08:05:42;15.90;22.00
262;DHT22;114;48.260;10.988;2023-08-06T08:08:08;16.70;9.80
262;DHT22;114;48.260;10.988;2023-08-06T08:10:34;16.70;14.50
262;DHT22;114;48.260;10.988;2023-08-06T08:13:01;17.40;3.70
262;DHT22;114;48.260;10.988;2023-08-06T08:15:29;16.20;8.00
262;DHT22;114;48.260;10.988;2023-08-06T08:17:54;16.10;12.40
262;DHT22;114;48.260;10.988;2023-08-06T08:20:21;15.90;14.70
262;DHT22;114;48.260;10.988;2023-08-06T08:22:47;15.90;17.80
262;DHT22;114;48.260;10.988;2023-08-06T08:25:13;15.70;12.60
262;DHT22;114;48.260;10.988;2023-08-06T08:27:39;15.50;14.10
262;DHT22;114;48.260;10.988;2023-08-06T08:30:05;15.60;18.10
262;DHT22;114;48.260;10.988;2023-08-06T08:32:31;15.40;17.70
262;DHT22;114;48.260;10.988;2023-08-06T08:34:57;15.30;19.10
262;DHT22;114;48.260;10.988;2023-08-06T08:37:23;15.20;20.90
262;DHT22;114;48.260;10.988;2023-08-06T08:39:49;15.20;22.90
262;DHT22;114;48.260;10.988;2023-08-06T08:42:16;15.30;24.10
262;DHT22;114;48.260;10.988;2023-08-06T08:44:42;15.20;22.90
262;DHT22;114;48.260;10.988;2023-08-06T08:47:09;15.20;24.30
262;DHT22;114;48.260;10.988;2023-08-06T08:49:36;15.00;28.60
262;DHT22;114;48.260;10.988;2023-08-06T08:52:03;14.90;35.20
262;DHT22;114;48.260;10.988;2023-08-06T08:54:33;14.90;41.50
262;DHT22;114;48.260;10.988;2023-08-06T08:56:59;14.90;36.80
262;DHT22;114;48.260;10.988;2023-08-06T08:59:26;14.90;39.50
262;DHT22;114;48.260;10.988;2023-08-06T09:01:52;14.70;42.10
262;DHT22;114;48.260;10.988;2023-08-06T09:04:19;14.70;41.50
262;DHT22;114;48.260;10.988;2023-08-06T09:06:50;14.60;37.00
262;DHT22;114;48.260;10.988;2023-08-06T09:09:26;14.60;42.20
262;DHT22;114;48.260;10.988;2023-08-06T09:11:55;14.70;37.70
262;DHT22;114;48.260;10.988;2023-08-06T09:14:24;14.50;35.20
262;DHT22;114;48.260;10.988;2023-08-06T09:16:51;14.60;34.60
262;DHT22;114;48.260;10.988;2023-08-06T09:19:17;14.50;31.90
262;DHT22;114;48.260;10.988;2023-08-06T09:21:45;14.60;36.70
262;DHT22;114;48.260;10.988;2023-08-06T09:24:14;14.80;32.90
262;DHT22;114;48.260;10.988;2023-08-06T09:26:41;14.90;28.60
262;DHT22;114;48.260;10.988;2023-08-06T09:29:08;14.90;28.10
262;DHT22;114;48.260;10.988;2023-08-06T09:31:44;15.00;29.50
262;DHT22;114;48.260;10.988;2023-08-06T09:34:11;15.00;28.10
262;DHT22;114;48.260;10.988;2023-08-06T09:36:46;15.30;27.10
262;DHT22;114;48.260;10.988;2023-08-06T09:39:19;15.20;23.70
262;DHT22;114;48.260;10.988;2023-08-06T09:41:46;15.60;20.90
262;DHT22;114;48.260;10.988;2023-08-06T09:44:19;15.50;19.30
262;DHT22;114;48.260;10.988;2023-08-06T09:46:51;15.80;16.40
262;DHT22;114;48.260;10.988;2023-08-06T09:49:26;16.10;16.00
262;DHT22;114;48.260;10.988;2023-08-06T09:51:54;16.20;14.60
262;DHT22;114;48.260;10.988;2023-08-06T09:54:25;15.80;14.30
262;DHT22;114;48.260;10.988;2023-08-06T09:56:55;15.60;19.10
262;DHT22;114;48.260;10.988;2023-08-06T09:59:21;15.50;20.50
262;DHT22;114;48.260;10.988;2023-08-06T10:01:48;15.10;24.40
262;DHT22;114;48.260;10.988;2023-08-06T10:04:15;15.30;24.50
262;DHT22;114;48.260;10.988;2023-08-06T10:06:47;15.40;20.10
262;DHT22;114;48.260;10.988;2023-08-06T10:09:18;15.80;17.60
262;DHT22;114;48.260;10.988;2023-08-06T10:11:50;16.00;16.50
262;DHT22;114;48.260;10.988;2023-08-06T10:14:25;16.10;14.10
262;DHT22;114;48.260;10.988;2023-08-06T10:16:52;16.00;14.60
262;DHT22;114;48.260;10.988;2023-08-06T10:19:19;16.00;17.80
262;DHT22;114;48.260;10.988;2023-08-06T10:22:08;16.00;15.60
262;DHT22;114;48.260;10.988;2023-08-06T10:24:55;16.20;15.70
262;DHT22;114;48.260;10.988;2023-08-06T10:27:23;16.30;9.00
262;DHT22;114;48.260;10.988;2023-08-06T10:29:48;16.20;10.60
262;DHT22;114;48.260;10.988;2023-08-06T10:32:17;16.70;10.70
262;DHT22;114;48.260;10.988;2023-08-06T10:34:56;16.70;9.30
262;DHT22;114;48.260;10.988;2023-08-06T10:37:23;16.10;10.20
262;DHT22;114;48.260;10.988;2023-08-06T10:39:50;15.80;12.30
262;DHT22;114;48.260;10.988;2023-08-06T10:42:27;15.70;14.50
262;DHT22;114;48.260;10.988;2023-08-06T10:45:34;16.00;12.30
262;DHT22;114;48.260;10.988;2023-08-06T10:47:59;16.00;11.60
262;DHT22;114;48.260;10.988;2023-08-06T10:50:25;15.90;12.70
262;DHT22;114;48.260;10.988;2023-08-06T10:52:51;16.10;14.30
262;DHT22;114;48.260;10.988;2023-08-06T10:55:27;15.70;18.80
262;DHT22;114;48.260;10.988;2023-08-06T10:57:53;15.60;19.30
262;DHT22;114;48.260;10.988;2023-08-06T11:00:21;15.40;22.10
262;DHT22;114;48.260;10.988;2023-08-06T11:02:48;15.40;22.00
262;DHT22;114;48.260;10.988;2023-08-06T11:05:15;15.60;20.20
262;DHT22;114;48.260;10.988;2023-08-06T11:07:41;15.80;18.20
262;DHT22;114;48.260;10.988;2023-08-06T11:10:08;15.70;17.00
262;DHT22;114;48.260;10.988;2023-08-06T11:12:34;16.00;17.20
262;DHT22;114;48.260;10.988;2023-08-06T11:15:01;16.30;13.80
262;DHT22;114;48.260;10.988;2023-08-06T11:17:28;16.20;16.30
262;DHT22;114;48.260;10.988;2023-08-06T11:19:54;16.30;16.40
262;DHT22;114;48.260;10.988;2023-08-06T11:22:21;16.70;12.20
262;DHT22;114;48.260;10.988;2023-08-06T11:24:48;16.60;11.80
262;DHT22;114;48.260;10.988;2023-08-06T11:27:14;16.90;12.40
262;DHT22;114;48.260;10.988;2023-08-06T11:29:41;17.10;10.70
262;DHT22;114;48.260;10.988;2023-08-06T11:32:08;17.20;3.80
262;DHT22;114;48.260;10.988;2023-08-06T11:34:34;16.50;10.20
262;DHT22;114;48.260;10.988;2023-08-06T11:37:00;15.90;16.60
262;DHT22;114;48.260;10.988;2023-08-06T11:39:26;16.20;13.40
262;DHT22;114;48.260;10.988;2023-08-06T11:41:52;16.50;12.90
262;DHT22;114;48.260;10.988;2023-08-06T11:44:22;16.50;8.50
262;DHT22;114;48.260;10.988;2023-08-06T11:46:55;16.50;10.60
262;DHT22;114;48.260;10.988;2023-08-06T11:52:20;16.40;11.20
262;DHT22;114;48.260;10.988;2023-08-06T11:57:44;16.90;7.20
262;DHT22;114;48.260;10.988;2023-08-06T12:00:13;17.00;6.00
262;DHT22;114;48.260;10.988;2023-08-06T12:02:40;17.30;1.50
262;DHT22;114;48.260;10.988;2023-08-06T12:05:17;16.80;5.60
262;DHT22;114;48.260;10.988;2023-08-06T12:07:48;16.90;5.90
262;DHT22;114;48.260;10.988;2023-08-06T12:10:14;16.50;16.40
262;DHT22;114;48.260;10.988;2023-08-06T12:12:40;16.00;27.60
262;DHT22;114;48.260;10.988;2023-08-06T12:15:07;15.50;40.20
262;DHT22;114;48.260;10.988;2023-08-06T12:17:34;15.30;51.00
262;DHT22;114;48.260;10.988;2023-08-06T12:20:00;15.20;41.30
262;DHT22;114;48.260;10.988;2023-08-06T12:22:26;15.20;36.20
262;DHT22;114;48.260;10.988;2023-08-06T12:24:52;15.00;41.10
262;DHT22;114;48.260;10.988;2023-08-06T12:27:18;15.10;46.10
262;DHT22;114;48.260;10.988;2023-08-06T12:29:46;15.40;43.00
262;DHT22;114;48.260;10.988;2023-08-06T12:32:13;15.80;38.20
262;DHT22;114;48.260;10.988;2023-08-06T12:34:39;16.70;32.60
262;DHT22;114;48.260;10.988;2023-08-06T12:37:06;16.40;31.90
262;DHT22;114;48.260;10.988;2023-08-06T12:39:33;15.70;42.90
262;DHT22;114;48.260;10.988;2023-08-06T12:42:00;15.40;54.20
262;DHT22;114;48.260;10.988;2023-08-06T12:44:26;14.80;48.30
262;DHT22;114;48.260;10.988;2023-08-06T12:46:52;14.70;61.50
262;DHT22;114;48.260;10.988;2023-08-06T12:49:18;14.80;69.50
262;DHT22;114;48.260;10.988;2023-08-06T12:51:49;15.00;58.30
262;DHT22;114;48.260;10.988;2023-08-06T12:54:19;15.50;56.50
262;DHT22;114;48.260;10.988;2023-08-06T12:56:46;15.90;49.50
262;DHT22;114;48.260;10.988;2023-08-06T12:59:15;16.00;45.30
262;DHT22;114;48.260;10.988;2023-08-06T13:01:42;15.60;48.80
262;DHT22;114;48.260;10.988;2023-08-06T13:04:08;15.60;43.30
262;DHT22;114;48.260;10.988;2023-08-06T13:06:35;15.40;44.30
262;DHT22;114;48.260;10.988;2023-08-06T13:09:07;15.10;47.30
262;DHT22;114;48.260;10.988;2023-08-06T13:11:34;14.90;55.10
262;DHT22;114;48.260;10.988;2023-08-06T13:14:13;14.70;49.20
262;DHT22;114;48.260;10.988;2023-08-06T13:16:40;14.60;58.20
262;DHT22;114;48.260;10.988;2023-08-06T13:19:07;14.60;61.90
262;DHT22;114;48.260;10.988;2023-08-06T13:21:34;14.40;61.80
262;DHT22;114;48.260;10.988;2023-08-06T13:24:01;14.70;58.10
262;DHT22;114;48.260;10.988;2023-08-06T13:26:29;14.60;56.80
262;DHT22;114;48.260;10.988;2023-08-06T13:28:56;14.70;59.00
262;DHT22;114;48.260;10.988;2023-08-06T13:31:22;14.70;58.40
262;DHT22;114;48.260;10.988;2023-08-06T13:33:47;14.90;59.90
262;DHT22;114;48.260;10.988;2023-08-06T13:36:15;14.90;55.20
262;DHT22;114;48.260;10.988;2023-08-06T13:38:41;14.80;59.10
262;DHT22;114;48.260;10.988;2023-08-06T13:41:07;14.70;59.20
262;DHT22;114;48.260;10.988;2023-08-06T13:43:32;14.70;59.80
262;DHT22;114;48.260;10.988;2023-08-06T13:45:58;14.70;61.80
262;DHT22;114;48.260;10.988;2023-08-06T13:48:24;14.70;62.80
262;DHT22;114;48.260;10.988;2023-08-06T13:50:50;14.50;91.60
262;DHT22;114;48.260;10.988;2023-08-06T13:53:15;14.00;76.20
262;DHT22;114;48.260;10.988;2023-08-06T13:55:41;13.70;91.70
262;DHT22;114;48.260;10.988;2023-08-06T13:58:07;13.50;95.20
262;DHT22;114;48.260;10.988;2023-08-06T14:00:32;13.50;97.30
262;DHT22;114;48.260;10.988;2023-08-06T14:02:58;13.50;96.00
262;DHT22;114;48.260;10.988;2023-08-06T14:05:24;13.50;95.20
262;DHT22;114;48.260;10.988;2023-08-06T14:07:50;13.50;95.00
262;DHT22;114;48.260;10.988;2023-08-06T14:10:16;13.60;96.40
262;DHT22;114;48.260;10.988;2023-08-06T14:12:41;13.70;93.70
262;DHT22;114;48.260;10.988;2023-08-06T14:15:08;13.80;90.60
262;DHT22;114;48.260;10.988;2023-08-06T14:17:33;13.90;90.40
262;DHT22;114;48.260;10.988;2023-08-06T14:19:59;14.00;86.80
262;DHT22;114;48.260;10.988;2023-08-06T14:22:26;14.00;85.50
262;DHT22;114;48.260;10.988;2023-08-06T14:24:51;13.80;83.30
262;DHT22;114;48.260;10.988;2023-08-06T14:27:17;13.90;75.80
262;DHT22;114;48.260;10.988;2023-08-06T14:29:43;14.00;75.40
262;DHT22;114;48.260;10.988;2023-08-06T14:32:09;14.00;77.80
262;DHT22;114;48.260;10.988;2023-08-06T14:34:34;14.30;73.40
262;DHT22;114;48.260;10.988;2023-08-06T14:37:00;14.40;74.00
262;DHT22;114;48.260;10.988;2023-08-06T14:39:26;14.50;64.70
262;DHT22;114;48.260;10.988;2023-08-06T14:41:51;14.60;64.50
262;DHT22;114;48.260;10.988;2023-08-06T14:44:17;14.70;66.40
262;DHT22;114;48.260;10.988;2023-08-06T14:46:43;14.90;54.50
262;DHT22;114;48.260;10.988;2023-08-06T14:49:09;15.30;54.00
262;DHT22;114;48.260;10.988;2023-08-06T14:51:34;15.40;42.20
262;DHT22;114;48.260;10.988;2023-08-06T14:54:00;15.50;41.10
262;DHT22;114;48.260;10.988;2023-08-06T14:56:26;15.50;33.40
262;DHT22;114;48.260;10.988;2023-08-06T14:58:51;15.20;32.10
262;DHT22;114;48.260;10.988;2023-08-06T15:01:17;15.10;34.40
262;DHT22;114;48.260;10.988;2023-08-06T15:03:42;14.90;34.40
262;DHT22;114;48.260;10.988;2023-08-06T15:06:08;14.80;42.50
262;DHT22;114;48.260;10.988;2023-08-06T15:08:34;14.70;48.40
262;DHT22;114;48.260;10.988;2023-08-06T15:10:59;14.50;48.00
262;DHT22;114;48.260;10.988;2023-08-06T15:13:28;14.50;54.50
262;DHT22;114;48.260;10.988;2023-08-06T15:15:54;14.40;46.80
262;DHT22;114;48.260;10.988;2023-08-06T15:18:20;14.10;58.60
262;DHT22;114;48.260;10.988;2023-08-06T15:20:45;13.70;59.30
262;DHT22;114;48.260;10.988;2023-08-06T15:23:11;13.50;64.00
262;DHT22;114;48.260;10.988;2023-08-06T15:25:37;13.50;83.10
262;DHT22;114;48.260;10.988;2023-08-06T15:28:03;13.50;80.10
262;DHT22;114;48.260;10.988;2023-08-06T15:30:28;13.60;74.60
262;DHT22;114;48.260;10.988;2023-08-06T15:32:54;13.70;78.90
262;DHT22;114;48.260;10.988;2023-08-06T15:35:20;13.70;75.70
262;DHT22;114;48.260;10.988;2023-08-06T15:37:45;13.70;76.90
262;DHT22;114;48.260;10.988;2023-08-06T15:40:11;13.90;81.20
262;DHT22;114;48.260;10.988;2023-08-06T15:42:37;14.10;75.30
262;DHT22;114;48.260;10.988;2023-08-06T15:45:03;14.10;66.00
262;DHT22;114;48.260;10.988;2023-08-06T15:47:29;14.10;57.10
262;DHT22;114;48.260;10.988;2023-08-06T15:49:55;14.20;59.40
262;DHT22;114;48.260;10.988;2023-08-06T15:52:20;14.00;54.70
262;DHT22;114;48.260;10.988;2023-08-06T15:54:46;14.20;58.20
262;DHT22;114;48.260;10.988;2023-08-06T15:57:12;14.30;61.20
262;DHT22;114;48.260;10.988;2023-08-06T15:59:37;14.10;42.60
262;DHT22;114;48.260;10.988;2023-08-06T16:02:03;14.00;46.00
262;DHT22;114;48.260;10.988;2023-08-06T16:04:30;14.10;52.40
262;DHT22;114;48.260;10.988;2023-08-06T16:06:57;14.30;52.40
262;DHT22;114;48.260;10.988;2023-08-06T16:09:23;14.50;42.50
262;DHT22;114;48.260;10.988;2023-08-06T16:11:50;14.80;44.00
262;DHT22;114;48.260;10.988;2023-08-06T16:14:17;15.10;42.20
262;DHT22;114;48.260;10.988;2023-08-06T16:16:42;15.60;35.90
262;DHT22;114;48.260;10.988;2023-08-06T16:19:08;15.50;38.20
262;DHT22;114;48.260;10.988;2023-08-06T16:21:34;15.00;44.00
262;DHT22;114;48.260;10.988;2023-08-06T16:24:01;14.60;54.70
262;DHT22;114;48.260;10.988;2023-08-06T16:26:26;14.40;56.10
262;DHT22;114;48.260;10.988;2023-08-06T16:28:52;14.50;53.10
262;DHT22;114;48.260;10.988;2023-08-06T16:31:19;15.50;43.20
262;DHT22;114;48.260;10.988;2023-08-06T16:33:45;16.00;31.90